sensor_id;sensor_type;location;lat;lon;timestamp;pressure;altitude;pressure_sealevel;temperature
51693;BMP280;37777;53.066;21.638;2023-05-07T00:00:29;101292.19;;;8.77
51693;BMP280;37777;53.066;21.638;2023-05-07T00:07:31;101287.44;;;8.74
51693;BMP280;37777;53.066;21.638;2023-05-07T00:14:34;101286.25;;;8.67
51693;BMP280;37777;53.066;21.638;2023-05-07T00:21:36;101289.38;;;8.60
51693;BMP280;37777;53.066;21.638;2023-05-07T00:28:38;101280.78;;;8.58
51693;BMP280;37777;53.066;21.638;2023-05-07T00:35:42;101289.50;;;8.55
51693;BMP280;37777;53.066;21.638;2023-05-07T00:42:44;101297.72;;;8.50
51693;BMP280;37777;53.066;21.638;2023-05-07T00:49:48;101308.59;;;8.44
51693;BMP280;37777;53.066;21.638;2023-05-07T00:56:50;101310.34;;;8.40
51693;BMP280;37777;53.066;21.638;2023-05-07T01:03:53;101316.94;;;8.34
51693;BMP280;37777;53.066;21.638;2023-05-07T01:10:56;101309.69;;;8.21
51693;BMP280;37777;53.066;21.638;2023-05-07T01:17:59;101312.63;;;8.10
51693;BMP280;37777;53.066;21.638;2023-05-07T01:25:01;101318.50;;;7.99
51693;BMP280;37777;53.066;21.638;2023-05-07T01:32:05;101327.59;;;7.89
51693;BMP280;37777;53.066;21.638;2023-05-07T01:39:08;101338.56;;;7.79
51693;BMP280;37777;53.066;21.638;2023-05-07T01:46:11;101335.38;;;7.63
51693;BMP280;37777;53.066;21.638;2023-05-07T01:53:14;101337.06;;;7.59
51693;BMP280;37777;53.066;21.638;2023-05-07T02:00:17;101340.84;;;7.57
51693;BMP280;37777;53.066;21.638;2023-05-07T02:07:19;101353.97;;;7.45
51693;BMP280;37777;53.066;21.638;2023-05-07T02:14:21;101359.50;;;7.21
51693;BMP280;37777;53.066;21.638;2023-05-07T02:21:24;101356.47;;;7.09
51693;BMP280;37777;53.066;21.638;2023-05-07T02:28:26;101355.53;;;6.99
51693;BMP280;37777;53.066;21.638;2023-05-07T02:35:28;101367.47;;;6.74
51693;BMP280;37777;53.066;21.638;2023-05-07T02:42:30;101371.41;;;6.82
51693;BMP280;37777;53.066;21.638;2023-05-07T02:49:32;101384.09;;;6.57
51693;BMP280;37777;53.066;21.638;2023-05-07T02:56:35;101390.56;;;6.37
51693;BMP280;37777;53.066;21.638;2023-05-07T03:03:37;101400.53;;;6.37
51693;BMP280;37777;53.066;21.638;2023-05-07T03:10:39;101406.22;;;6.30
51693;BMP280;37777;53.066;21.638;2023-05-07T03:17:41;101417.09;;;6.20
51693;BMP280;37777;53.066;21.638;2023-05-07T03:24:44;101425.94;;;6.20
51693;BMP280;37777;53.066;21.638;2023-05-07T03:31:46;101431.38;;;6.15
51693;BMP280;37777;53.066;21.638;2023-05-07T03:38:49;101457.06;;;6.50
51693;BMP280;37777;53.066;21.638;2023-05-07T03:45:51;101462.22;;;6.47
51693;BMP280;37777;53.066;21.638;2023-05-07T03:52:53;101462.59;;;6.64
51693;BMP280;37777;53.066;21.638;2023-05-07T03:59:55;101470.44;;;6.80
51693;BMP280;37777;53.066;21.638;2023-05-07T04:06:57;101476.22;;;6.68
51693;BMP280;37777;53.066;21.638;2023-05-07T04:13:59;101486.28;;;6.81
51693;BMP280;37777;53.066;21.638;2023-05-07T04:21:01;101499.78;;;7.00
51693;BMP280;37777;53.066;21.638;2023-05-07T04:28:03;101500.16;;;7.13
51693;BMP280;37777;53.066;21.638;2023-05-07T04:35:06;101502.38;;;7.44
51693;BMP280;37777;53.066;21.638;2023-05-07T04:42:08;101507.13;;;7.85
51693;BMP280;37777;53.066;21.638;2023-05-07T04:49:11;101516.69;;;8.24
51693;BMP280;37777;53.066;21.638;2023-05-07T04:56:13;101516.72;;;8.52
51693;BMP280;37777;53.066;21.638;2023-05-07T05:03:15;101531.50;;;8.68
51693;BMP280;37777;53.066;21.638;2023-05-07T05:10:17;101527.47;;;8.93
51693;BMP280;37777;53.066;21.638;2023-05-07T05:17:19;101529.63;;;9.19
51693;BMP280;37777;53.066;21.638;2023-05-07T05:24:22;101548.16;;;9.34
51693;BMP280;37777;53.066;21.638;2023-05-07T05:31:24;101537.50;;;9.52
51693;BMP280;37777;53.066;21.638;2023-05-07T05:38:26;101541.00;;;9.75
51693;BMP280;37777;53.066;21.638;2023-05-07T05:45:29;101539.69;;;9.95
51693;BMP280;37777;53.066;21.638;2023-05-07T05:52:31;101542.78;;;10.11
51693;BMP280;37777;53.066;21.638;2023-05-07T05:59:33;101551.44;;;10.22
51693;BMP280;37777;53.066;21.638;2023-05-07T06:06:36;101550.06;;;10.33
51693;BMP280;37777;53.066;21.638;2023-05-07T06:13:39;101561.69;;;10.51
51693;BMP280;37777;53.066;21.638;2023-05-07T06:20:41;101555.22;;;10.61
51693;BMP280;37777;53.066;21.638;2023-05-07T06:27:43;101563.03;;;10.63
51693;BMP280;37777;53.066;21.638;2023-05-07T06:34:45;101564.50;;;10.77
51693;BMP280;37777;53.066;21.638;2023-05-07T06:41:47;101562.97;;;11.11
51693;BMP280;37777;53.066;21.638;2023-05-07T06:48:49;101566.28;;;11.34
51693;BMP280;37777;53.066;21.638;2023-05-07T06:55:51;101570.72;;;11.48
51693;BMP280;37777;53.066;21.638;2023-05-07T07:02:55;101576.81;;;11.62
51693;BMP280;37777;53.066;21.638;2023-05-07T07:09:57;101573.25;;;11.70
51693;BMP280;37777;53.066;21.638;2023-05-07T07:16:59;101575.97;;;11.70
51693;BMP280;37777;53.066;21.638;2023-05-07T07:24:02;101579.13;;;11.90
51693;BMP280;37777;53.066;21.638;2023-05-07T07:31:04;101578.63;;;11.97
51693;BMP280;37777;53.066;21.638;2023-05-07T07:38:06;101577.94;;;12.08
51693;BMP280;37777;53.066;21.638;2023-05-07T07:45:08;101582.66;;;12.29
51693;BMP280;37777;53.066;21.638;2023-05-07T07:52:10;101590.41;;;12.48
51693;BMP280;37777;53.066;21.638;2023-05-07T07:59:12;101589.81;;;12.34
51693;BMP280;37777;53.066;21.638;2023-05-07T08:06:16;101596.88;;;12.56
51693;BMP280;37777;53.066;21.638;2023-05-07T08:13:18;101582.56;;;12.47
51693;BMP280;37777;53.066;21.638;2023-05-07T08:20:20;101594.81;;;12.53
51693;BMP280;37777;53.066;21.638;2023-05-07T08:27:22;101599.91;;;12.63
51693;BMP280;37777;53.066;21.638;2023-05-07T08:34:25;101586.03;;;12.86
51693;BMP280;37777;53.066;21.638;2023-05-07T08:41:27;101596.53;;;13.08
51693;BMP280;37777;53.066;21.638;2023-05-07T08:48:29;101585.47;;;13.47
51693;BMP280;37777;53.066;21.638;2023-05-07T08:55:32;101596.56;;;13.75
51693;BMP280;37777;53.066;21.638;2023-05-07T09:02:35;101592.41;;;13.44
51693;BMP280;37777;53.066;21.638;2023-05-07T09:09:38;101593.69;;;13.26
51693;BMP280;37777;53.066;21.638;2023-05-07T09:16:40;101608.19;;;13.30
51693;BMP280;37777;53.066;21.638;2023-05-07T09:23:42;101604.31;;;13.98
51693;BMP280;37777;53.066;21.638;2023-05-07T09:30:44;101601.38;;;14.03
51693;BMP280;37777;53.066;21.638;2023-05-07T09:37:46;101602.25;;;13.70
51693;BMP280;37777;53.066;21.638;2023-05-07T09:44:48;101606.78;;;13.78
51693;BMP280;37777;53.066;21.638;2023-05-07T09:51:51;101607.72;;;14.07
51693;BMP280;37777;53.066;21.638;2023-05-07T09:58:56;101616.22;;;14.67
51693;BMP280;37777;53.066;21.638;2023-05-07T10:05:59;101609.44;;;14.36
51693;BMP280;37777;53.066;21.638;2023-05-07T10:13:01;101603.88;;;14.08
51693;BMP280;37777;53.066;21.638;2023-05-07T10:20:08;101620.41;;;13.78
51693;BMP280;37777;53.066;21.638;2023-05-07T10:27:12;101617.59;;;14.48
51693;BMP280;37777;53.066;21.638;2023-05-07T10:34:21;101601.63;;;14.10
51693;BMP280;37777;53.066;21.638;2023-05-07T10:41:24;101599.78;;;14.39
51693;BMP280;37777;53.066;21.638;2023-05-07T10:48:26;101620.00;;;15.03
51693;BMP280;37777;53.066;21.638;2023-05-07T10:55:30;101610.69;;;14.92
51693;BMP280;37777;53.066;21.638;2023-05-07T11:03:04;101619.16;;;15.15
51693;BMP280;37777;53.066;21.638;2023-05-07T11:10:07;101603.50;;;14.71
51693;BMP280;37777;53.066;21.638;2023-05-07T11:17:12;101604.91;;;14.53
51693;BMP280;37777;53.066;21.638;2023-05-07T11:24:14;101622.94;;;14.98
51693;BMP280;37777;53.066;21.638;2023-05-07T11:31:23;101610.09;;;15.55
51693;BMP280;37777;53.066;21.638;2023-05-07T11:38:26;101608.53;;;15.70
51693;BMP280;37777;53.066;21.638;2023-05-07T11:45:28;101612.69;;;15.95
51693;BMP280;37777;53.066;21.638;2023-05-07T11:52:30;101610.06;;;15.39
51693;BMP280;37777;53.066;21.638;2023-05-07T11:59:39;101614.38;;;15.24
51693;BMP280;37777;53.066;21.638;2023-05-07T12:06:45;101606.44;;;15.19
51693;BMP280;37777;53.066;21.638;2023-05-07T12:13:49;101615.22;;;15.56
51693;BMP280;37777;53.066;21.638;2023-05-07T12:20:51;101612.75;;;16.15
51693;BMP280;37777;53.066;21.638;2023-05-07T12:27:53;101629.66;;;16.36
51693;BMP280;37777;53.066;21.638;2023-05-07T12:34:55;101613.91;;;15.66
51693;BMP280;37777;53.066;21.638;2023-05-07T12:41:58;101612.44;;;14.96
51693;BMP280;37777;53.066;21.638;2023-05-07T12:49:00;101608.53;;;15.70
51693;BMP280;37777;53.066;21.638;2023-05-07T12:56:05;101607.41;;;15.87
51693;BMP280;37777;53.066;21.638;2023-05-07T13:03:07;101606.41;;;16.11
51693;BMP280;37777;53.066;21.638;2023-05-07T13:10:09;101609.75;;;15.56
51693;BMP280;37777;53.066;21.638;2023-05-07T13:17:11;101606.78;;;15.93
51693;BMP280;37777;53.066;21.638;2023-05-07T13:24:14;101610.94;;;16.03
51693;BMP280;37777;53.066;21.638;2023-05-07T13:31:17;101602.66;;;16.15
51693;BMP280;37777;53.066;21.638;2023-05-07T13:38:19;101600.47;;;15.29
51693;BMP280;37777;53.066;21.638;2023-05-07T13:45:23;101608.00;;;15.64
51693;BMP280;37777;53.066;21.638;2023-05-07T13:52:27;101591.53;;;15.60
51693;BMP280;37777;53.066;21.638;2023-05-07T13:59:29;101600.66;;;15.36
51693;BMP280;37777;53.066;21.638;2023-05-07T14:06:32;101600.91;;;16.43
51693;BMP280;37777;53.066;21.638;2023-05-07T14:13:35;101592.25;;;15.73
51693;BMP280;37777;53.066;21.638;2023-05-07T14:20:37;101600.44;;;16.05
51693;BMP280;37777;53.066;21.638;2023-05-07T14:27:39;101604.59;;;15.99
51693;BMP280;37777;53.066;21.638;2023-05-07T14:34:41;101606.13;;;16.32
51693;BMP280;37777;53.066;21.638;2023-05-07T14:41:43;101608.97;;;15.56
51693;BMP280;37777;53.066;21.638;2023-05-07T14:48:45;101597.31;;;14.21
51693;BMP280;37777;53.066;21.638;2023-05-07T14:55:50;101612.53;;;14.88
51693;BMP280;37777;53.066;21.638;2023-05-07T15:02:52;101618.28;;;14.98
51693;BMP280;37777;53.066;21.638;2023-05-07T15:09:55;101612.75;;;15.23
51693;BMP280;37777;53.066;21.638;2023-05-07T15:16:57;101610.19;;;15.43
51693;BMP280;37777;53.066;21.638;2023-05-07T15:23:59;101608.91;;;15.24
51693;BMP280;37777;53.066;21.638;2023-05-07T15:31:02;101616.97;;;15.49
51693;BMP280;37777;53.066;21.638;2023-05-07T15:38:04;101621.44;;;15.13
51693;BMP280;37777;53.066;21.638;2023-05-07T15:45:07;101629.53;;;15.37
51693;BMP280;37777;53.066;21.638;2023-05-07T15:52:10;101626.00;;;15.81
51693;BMP280;37777;53.066;21.638;2023-05-07T15:59:12;101630.91;;;15.75
51693;BMP280;37777;53.066;21.638;2023-05-07T16:06:16;101630.44;;;15.57
51693;BMP280;37777;53.066;21.638;2023-05-07T16:13:18;101643.56;;;15.68
51693;BMP280;37777;53.066;21.638;2023-05-07T16:20:21;101649.22;;;15.75
51693;BMP280;37777;53.066;21.638;2023-05-07T16:27:24;101631.97;;;15.71
51693;BMP280;37777;53.066;21.638;2023-05-07T16:34:26;101638.31;;;15.91
51693;BMP280;37777;53.066;21.638;2023-05-07T16:41:29;101639.56;;;15.93
51693;BMP280;37777;53.066;21.638;2023-05-07T16:48:32;101643.50;;;16.12
51693;BMP280;37777;53.066;21.638;2023-05-07T16:55:39;101646.22;;;16.12
51693;BMP280;37777;53.066;21.638;2023-05-07T17:02:42;101645.44;;;16.11
51693;BMP280;37777;53.066;21.638;2023-05-07T17:09:45;101653.47;;;15.88
51693;BMP280;37777;53.066;21.638;2023-05-07T17:16:48;101654.41;;;15.64
51693;BMP280;37777;53.066;21.638;2023-05-07T17:23:50;101662.75;;;15.55
51693;BMP280;37777;53.066;21.638;2023-05-07T17:30:52;101672.31;;;15.09
51693;BMP280;37777;53.066;21.638;2023-05-07T17:37:54;101674.56;;;14.66
51693;BMP280;37777;53.066;21.638;2023-05-07T17:44:56;101669.69;;;14.22
51693;BMP280;37777;53.066;21.638;2023-05-07T17:51:58;101683.44;;;13.92
51693;BMP280;37777;53.066;21.638;2023-05-07T17:59:00;101688.63;;;13.52
51693;BMP280;37777;53.066;21.638;2023-05-07T18:06:02;101693.25;;;13.09
51693;BMP280;37777;53.066;21.638;2023-05-07T18:13:04;101695.19;;;12.79
51693;BMP280;37777;53.066;21.638;2023-05-07T18:20:07;101711.66;;;12.65
51693;BMP280;37777;53.066;21.638;2023-05-07T18:27:12;101717.50;;;12.46
51693;BMP280;37777;53.066;21.638;2023-05-07T18:34:14;101726.41;;;11.82
51693;BMP280;37777;53.066;21.638;2023-05-07T18:41:17;101730.66;;;11.65
51693;BMP280;37777;53.066;21.638;2023-05-07T18:48:19;101729.06;;;11.38
51693;BMP280;37777;53.066;21.638;2023-05-07T18:55:21;101743.19;;;11.18
51693;BMP280;37777;53.066;21.638;2023-05-07T19:02:23;101740.25;;;10.96
51693;BMP280;37777;53.066;21.638;2023-05-07T19:09:26;101740.16;;;10.79
51693;BMP280;37777;53.066;21.638;2023-05-07T19:16:29;101751.91;;;10.66
51693;BMP280;37777;53.066;21.638;2023-05-07T19:23:31;101753.69;;;10.48
51693;BMP280;37777;53.066;21.638;2023-05-07T19:30:37;101760.50;;;10.22
51693;BMP280;37777;53.066;21.638;2023-05-07T19:37:39;101774.19;;;10.03
51693;BMP280;37777;53.066;21.638;2023-05-07T19:44:42;101776.63;;;9.91
51693;BMP280;37777;53.066;21.638;2023-05-07T19:51:44;101788.59;;;9.76
51693;BMP280;37777;53.066;21.638;2023-05-07T19:58:46;101799.91;;;9.50
51693;BMP280;37777;53.066;21.638;2023-05-07T20:05:49;101805.50;;;9.26
51693;BMP280;37777;53.066;21.638;2023-05-07T20:12:53;101817.84;;;8.99
51693;BMP280;37777;53.066;21.638;2023-05-07T20:19:55;101829.63;;;8.90
51693;BMP280;37777;53.066;21.638;2023-05-07T20:26:57;101838.78;;;8.75
51693;BMP280;37777;53.066;21.638;2023-05-07T20:33:59;101845.59;;;8.86
51693;BMP280;37777;53.066;21.638;2023-05-07T20:41:10;101850.47;;;8.70
51693;BMP280;37777;53.066;21.638;2023-05-07T20:48:15;101855.47;;;8.58
51693;BMP280;37777;53.066;21.638;2023-05-07T20:55:17;101864.53;;;8.05
51693;BMP280;37777;53.066;21.638;2023-05-07T21:02:19;101871.78;;;8.09
51693;BMP280;37777;53.066;21.638;2023-05-07T21:09:21;101875.78;;;8.12
51693;BMP280;37777;53.066;21.638;2023-05-07T21:16:23;101877.25;;;7.51
51693;BMP280;37777;53.066;21.638;2023-05-07T21:23:25;101890.44;;;7.52
51693;BMP280;37777;53.066;21.638;2023-05-07T21:30:27;101893.75;;;7.10
51693;BMP280;37777;53.066;21.638;2023-05-07T21:37:29;101897.50;;;7.14
51693;BMP280;37777;53.066;21.638;2023-05-07T21:44:31;101908.44;;;7.22
51693;BMP280;37777;53.066;21.638;2023-05-07T21:51:33;101915.97;;;6.86
51693;BMP280;37777;53.066;21.638;2023-05-07T21:58:35;101925.09;;;6.90
51693;BMP280;37777;53.066;21.638;2023-05-07T22:05:38;101923.16;;;6.51
51693;BMP280;37777;53.066;21.638;2023-05-07T22:12:40;101924.09;;;6.71
51693;BMP280;37777;53.066;21.638;2023-05-07T22:19:42;101923.53;;;6.79
51693;BMP280;37777;53.066;21.638;2023-05-07T22:26:44;101933.97;;;6.36
51693;BMP280;37777;53.066;21.638;2023-05-07T22:33:46;101936.34;;;6.42
51693;BMP280;37777;53.066;21.638;2023-05-07T22:40:48;101943.97;;;6.04
51693;BMP280;37777;53.066;21.638;2023-05-07T22:47:50;101936.19;;;6.03
51693;BMP280;37777;53.066;21.638;2023-05-07T22:54:52;101934.03;;;5.99
51693;BMP280;37777;53.066;21.638;2023-05-07T23:01:54;101935.66;;;5.70
51693;BMP280;37777;53.066;21.638;2023-05-07T23:08:56;101931.38;;;5.79
51693;BMP280;37777;53.066;21.638;2023-05-07T23:15:59;101931.91;;;5.40
51693;BMP280;37777;53.066;21.638;2023-05-07T23:23:01;101936.19;;;5.51
51693;BMP280;37777;53.066;21.638;2023-05-07T23:30:04;101938.31;;;5.18
51693;BMP280;37777;53.066;21.638;2023-05-07T23:37:09;101943.66;;;5.03
51693;BMP280;37777;53.066;21.638;2023-05-07T23:44:11;101944.97;;;4.95
51693;BMP280;37777;53.066;21.638;2023-05-07T23:51:14;101950.13;;;5.17
51693;BMP280;37777;53.066;21.638;2023-05-07T23:58:17;101942.06;;;5.12
